Time;durP1;ratioP1;P1;durP2;ratioP2;P2;SDS_P1;SDS_P2;PMS_P1;PMS_P2;Temp;Humidity;BMP_temperature;BMP_pressure;BME280_temperature;BME280_humidity;BME280_pressure;Samples;Min_cycle;Max_cycle;Signal;HPM_P1;HPM_P2
2023/07/10 00:01:57;;;;;;;14.50;13.30;;;20.80;99.90;;;;;;5051074;28;20676;-69
2023/07/10 00:04:22;;;;;;;14.47;13.07;;;20.70;99.90;;;;;;5050486;28;21419;-69
2023/07/10 00:06:48;;;;;;;14.83;13.30;;;20.70;99.90;;;;;;5050807;28;20193;-69
2023/07/10 00:09:14;;;;;;;16.00;14.30;;;20.70;99.90;;;;;;5049726;28;20200;-69
2023/07/10 00:11:42;;;;;;;17.27;15.67;;;20.70;99.90;;;;;;5050991;28;20442;-69
2023/07/10 00:14:22;;;;;;;18.47;16.63;;;20.60;99.90;;;;;;5049102;28;20920;-69
2023/07/10 00:16:50;;;;;;;17.37;15.87;;;20.70;99.90;;;;;;5050576;28;20435;-69
2023/07/10 00:19:15;;;;;;;17.73;15.90;;;20.60;99.90;;;;;;5050687;28;20416;-69
2023/07/10 00:21:41;;;;;;;18.20;16.60;;;20.70;99.90;;;;;;5050609;28;20459;-69
2023/07/10 00:24:08;;;;;;;18.50;16.70;;;20.70;99.90;;;;;;5049959;28;20264;-69
2023/07/10 00:26:37;;;;;;;18.30;16.50;;;20.70;99.90;;;;;;5050049;28;20201;-69
2023/07/10 00:29:26;;;;;;;17.73;16.10;;;20.70;99.90;;;;;;5050447;28;20420;-69
2023/07/10 00:31:51;;;;;;;19.63;17.63;;;20.70;99.90;;;;;;5050231;28;20416;-69
2023/07/10 00:34:18;;;;;;;17.47;15.97;;;20.70;99.90;;;;;;5049632;28;20417;-69
2023/07/10 00:36:48;;;;;;;17.00;15.30;;;20.70;99.90;;;;;;5049856;28;20193;-69
2023/07/10 00:39:24;;;;;;;17.57;16.07;;;20.70;99.90;;;;;;5048891;28;20439;-69
2023/07/10 00:41:56;;;;;;;18.53;16.90;;;20.70;99.90;;;;;;5048908;28;20420;-69
2023/07/10 00:44:32;;;;;;;18.60;17.00;;;20.70;99.90;;;;;;5049827;28;20396;-69
2023/07/10 00:47:05;;;;;;;18.27;16.60;;;20.60;99.90;;;;;;5048660;28;20458;-69
2023/07/10 00:49:33;;;;;;;17.50;15.80;;;20.60;99.90;;;;;;5048762;28;20416;-69
2023/07/10 00:52:19;;;;;;;18.40;16.60;;;20.50;99.90;;;;;;5049431;28;20448;-69
2023/07/10 00:54:48;;;;;;;18.23;16.63;;;20.60;99.90;;;;;;5049799;28;20403;-69
2023/07/10 00:57:34;;;;;;;17.43;15.80;;;20.60;99.90;;;;;;5049001;28;20422;-69
2023/07/10 01:00:14;;;;;;;19.10;17.40;;;20.60;99.90;;;;;;5049817;28;20541;-69
2023/07/10 01:02:40;;;;;;;17.57;16.10;;;20.70;99.90;;;;;;5049079;28;20492;-69
2023/07/10 01:05:06;;;;;;;17.00;15.47;;;20.80;99.90;;;;;;5049258;28;20416;-69
2023/07/10 01:07:41;;;;;;;19.50;17.60;;;20.80;99.90;;;;;;5049478;28;20435;-69
2023/07/10 01:10:09;;;;;;;18.33;16.63;;;20.80;99.90;;;;;;5049741;28;20427;-69
2023/07/10 01:12:36;;;;;;;18.13;16.43;;;20.90;99.90;;;;;;5048777;28;20991;-69
2023/07/10 01:15:04;;;;;;;19.07;17.10;;;20.90;99.90;;;;;;5049117;28;20408;-69
2023/07/10 01:17:29;;;;;;;17.00;15.40;;;20.80;99.90;;;;;;5049512;28;20506;-69
2023/07/10 01:20:05;;;;;;;18.77;17.07;;;20.80;99.90;;;;;;5049210;28;20514;-69
2023/07/10 01:22:31;;;;;;;17.90;16.30;;;20.80;99.90;;;;;;5048841;28;20174;-69
2023/07/10 01:24:57;;;;;;;18.93;17.33;;;20.80;99.90;;;;;;5048891;28;20438;-69
2023/07/10 01:27:23;;;;;;;18.20;16.60;;;20.80;99.90;;;;;;5049180;28;20970;-69
2023/07/10 01:30:23;;;;;;;19.77;17.97;;;20.80;99.90;;;;;;5049147;28;20412;-69
2023/07/10 01:32:49;;;;;;;21.40;19.27;;;20.90;99.90;;;;;;5048473;28;20416;-69
2023/07/10 01:35:17;;;;;;;21.07;18.77;;;20.80;99.90;;;;;;5046154;28;21194;-69
2023/07/10 01:37:43;;;;;;;18.67;16.83;;;20.90;99.90;;;;;;5048768;28;20494;-69
2023/07/10 01:40:16;;;;;;;20.13;18.03;;;20.80;99.90;;;;;;5049050;28;20510;-69
2023/07/10 01:42:42;;;;;;;18.90;17.00;;;20.80;99.90;;;;;;5048075;28;20267;-69
2023/07/10 01:45:13;;;;;;;18.50;16.90;;;20.80;99.90;;;;;;5048475;28;20443;-69
2023/07/10 01:47:40;;;;;;;20.43;18.43;;;20.80;99.90;;;;;;5049104;28;20408;-69
2023/07/10 01:50:06;;;;;;;17.77;16.20;;;20.80;99.90;;;;;;5048435;28;20427;-69
2023/07/10 01:52:32;;;;;;;18.87;17.10;;;20.80;99.90;;;;;;5048233;28;20420;-69
2023/07/10 01:54:58;;;;;;;19.33;17.27;;;20.70;99.90;;;;;;5048417;28;20424;-69
2023/07/10 01:57:25;;;;;;;17.97;16.43;;;20.80;99.90;;;;;;5048521;28;20170;-69
2023/07/10 01:59:52;;;;;;;19.27;17.30;;;20.70;99.90;;;;;;5048772;28;20208;-69
2023/07/10 02:02:17;;;;;;;17.50;15.80;;;20.70;99.90;;;;;;5048199;28;20409;-69
2023/07/10 02:04:43;;;;;;;17.23;15.43;;;20.70;99.90;;;;;;5048409;28;20419;-69
2023/07/10 02:07:09;;;;;;;17.37;15.67;;;20.70;99.90;;;;;;5048560;28;20562;-69
2023/07/10 02:09:34;;;;;;;17.37;15.57;;;20.70;99.90;;;;;;5047447;28;20545;-69
2023/07/10 02:12:01;;;;;;;17.40;15.60;;;20.60;99.90;;;;;;5047041;28;20239;-69
2023/07/10 02:14:26;;;;;;;15.63;14.03;;;20.60;99.90;;;;;;5048309;28;20181;-70
2023/07/10 02:16:52;;;;;;;16.23;14.63;;;20.70;99.90;;;;;;5047931;28;20983;-70
2023/07/10 02:19:19;;;;;;;14.90;13.40;;;20.70;99.90;;;;;;5048538;28;20181;-69
2023/07/10 02:21:46;;;;;;;17.70;15.93;;;20.70;99.90;;;;;;5048688;28;20498;-69
2023/07/10 02:24:11;;;;;;;13.77;12.37;;;20.70;99.90;;;;;;5047868;28;20419;-69
2023/07/10 02:26:37;;;;;;;15.53;14.03;;;20.70;99.90;;;;;;5048001;28;20432;-69
2023/07/10 02:29:03;;;;;;;15.10;13.70;;;20.70;99.90;;;;;;5048448;28;20206;-69
2023/07/10 02:31:29;;;;;;;14.90;13.40;;;20.70;99.90;;;;;;5048734;28;20186;-69
2023/07/10 02:33:55;;;;;;;13.70;12.30;;;20.70;99.90;;;;;;5048215;28;20470;-69
2023/07/10 02:36:22;;;;;;;15.30;13.77;;;20.70;99.90;;;;;;5047966;28;20522;-69
2023/07/10 02:38:48;;;;;;;14.80;13.50;;;20.70;99.90;;;;;;5048325;28;20185;-69
2023/07/10 02:41:14;;;;;;;14.63;13.20;;;20.70;99.90;;;;;;5048422;28;21066;-70
2023/07/10 02:43:39;;;;;;;15.43;13.83;;;20.70;99.90;;;;;;5047745;28;20194;-69
2023/07/10 02:46:05;;;;;;;14.33;13.03;;;20.70;99.90;;;;;;5047985;28;20463;-69
2023/07/10 02:48:31;;;;;;;15.40;14.00;;;20.70;99.90;;;;;;5047083;28;20202;-70
2023/07/10 02:50:57;;;;;;;16.30;14.57;;;20.70;99.90;;;;;;5048310;28;20276;-69
2023/07/10 02:53:22;;;;;;;15.40;13.80;;;20.70;99.90;;;;;;5047553;28;20219;-70
2023/07/10 02:55:48;;;;;;;16.43;15.00;;;20.70;99.90;;;;;;5047388;28;20237;-69
2023/07/10 02:58:14;;;;;;;20.60;16.67;;;20.80;99.90;;;;;;5048318;28;20228;-69
2023/07/10 03:00:40;;;;;;;16.50;15.10;;;20.80;99.90;;;;;;5048400;28;20289;-70
2023/07/10 03:03:06;;;;;;;17.47;15.77;;;20.80;99.90;;;;;;5051306;28;20487;-69
2023/07/10 03:05:31;;;;;;;21.13;18.90;;;20.70;99.90;;;;;;5050135;28;20736;-70
2023/07/10 03:07:57;;;;;;;18.43;16.63;;;20.70;99.90;;;;;;5051880;28;20189;-69
2023/07/10 03:10:23;;;;;;;20.90;18.07;;;20.70;99.90;;;;;;5050664;28;20177;-69
2023/07/10 03:12:49;;;;;;;23.50;20.10;;;20.70;99.90;;;;;;5051156;28;20234;-69
2023/07/10 03:15:14;;;;;;;20.37;18.23;;;20.70;99.90;;;;;;5051241;28;20516;-69
2023/07/10 03:17:41;;;;;;;24.20;21.70;;;20.70;99.90;;;;;;5051653;28;20178;-69
2023/07/10 03:20:08;;;;;;;23.10;20.90;;;20.60;99.90;;;;;;5051475;28;20236;-69
2023/07/10 03:22:34;;;;;;;20.30;18.50;;;20.60;99.90;;;;;;5051284;28;20415;-69
2023/07/10 03:24:59;;;;;;;19.20;17.17;;;20.60;99.90;;;;;;5049888;28;20785;-69
2023/07/10 03:27:27;;;;;;;20.10;18.10;;;20.60;99.90;;;;;;5051466;28;20177;-69
2023/07/10 03:29:53;;;;;;;20.63;18.63;;;20.70;99.90;;;;;;5051485;28;20266;-69
2023/07/10 03:32:19;;;;;;;22.87;20.70;;;20.70;99.90;;;;;;5050874;28;20416;-69
2023/07/10 03:34:45;;;;;;;23.20;20.87;;;20.70;99.90;;;;;;5050979;28;20430;-69
2023/07/10 03:37:11;;;;;;;19.03;17.23;;;20.70;99.90;;;;;;5051369;28;20511;-69
2023/07/10 03:39:36;;;;;;;23.27;21.07;;;20.70;99.90;;;;;;5051151;28;20478;-69
2023/07/10 03:42:03;;;;;;;23.00;20.80;;;20.70;99.90;;;;;;5050757;28;20231;-69
2023/07/10 03:44:29;;;;;;;24.53;21.93;;;20.60;99.90;;;;;;5053332;28;20230;-69
2023/07/10 03:46:56;;;;;;;22.10;19.90;;;20.60;99.90;;;;;;5051561;28;20852;-69
2023/07/10 03:49:22;;;;;;;23.13;20.07;;;20.60;99.90;;;;;;5051027;28;20912;-69
2023/07/10 03:51:48;;;;;;;24.03;21.47;;;20.60;99.90;;;;;;5051110;28;20423;-69
2023/07/10 03:54:14;;;;;;;24.67;22.03;;;20.60;99.90;;;;;;5050577;28;20186;-69
2023/07/10 03:56:40;;;;;;;23.47;20.97;;;20.60;99.90;;;;;;5049496;28;20206;-69
2023/07/10 03:59:08;;;;;;;25.33;22.60;;;20.50;99.90;;;;;;5051181;28;20762;-69
2023/07/10 04:01:34;;;;;;;24.47;20.53;;;20.50;99.90;;;;;;5050722;28;20264;-69
2023/07/10 04:03:59;;;;;;;24.70;22.27;;;20.40;99.90;;;;;;5050232;28;20440;-69
2023/07/10 04:06:25;;;;;;;22.73;20.30;;;20.40;99.90;;;;;;5048151;28;20204;-69
2023/07/10 04:08:51;;;;;;;26.10;23.03;;;20.40;99.90;;;;;;5050520;28;20650;-69
2023/07/10 04:11:20;;;;;;;25.03;22.53;;;20.40;99.90;;;;;;5050684;28;20181;-69
2023/07/10 04:13:47;;;;;;;24.47;22.17;;;20.40;99.90;;;;;;5049860;28;20416;-69
2023/07/10 04:16:17;;;;;;;25.87;23.20;;;20.40;99.90;;;;;;5049960;28;20446;-69
2023/07/10 04:18:43;;;;;;;27.63;24.73;;;20.40;99.90;;;;;;5050487;28;20500;-69
2023/07/10 04:21:21;;;;;;;26.90;24.10;;;20.30;99.90;;;;;;5050565;28;21007;-69
2023/07/10 04:23:47;;;;;;;29.87;24.17;;;20.40;99.90;;;;;;5049843;28;20408;-70
2023/07/10 04:26:18;;;;;;;25.67;23.13;;;20.40;99.90;;;;;;5049974;28;20424;-70
2023/07/10 04:28:51;;;;;;;25.97;23.27;;;20.40;99.90;;;;;;5050130;28;20431;-70
2023/07/10 04:31:18;;;;;;;25.20;22.00;;;20.40;99.90;;;;;;5050205;28;20448;-69
2023/07/10 04:33:45;;;;;;;26.07;23.53;;;20.40;99.90;;;;;;5049603;28;20417;-69
2023/07/10 04:36:11;;;;;;;27.20;24.40;;;20.40;99.90;;;;;;5049888;28;20432;-69
2023/07/10 04:38:36;;;;;;;28.53;23.97;;;20.50;99.90;;;;;;5050227;28;20416;-69
2023/07/10 04:41:06;;;;;;;25.60;23.07;;;20.50;99.90;;;;;;5052061;28;20518;-69
2023/07/10 04:43:33;;;;;;;27.17;24.27;;;20.40;99.90;;;;;;5054371;28;20424;-69
2023/07/10 04:46:04;;;;;;;26.97;23.00;;;20.50;99.90;;;;;;5044273;28;20448;-69
2023/07/10 04:48:30;;;;;;;24.83;21.27;;;20.40;99.90;;;;;;5044816;28;20943;-69
2023/07/10 04:50:59;;;;;;;25.83;23.23;;;20.40;99.90;;;;;;5048437;28;20447;-69
2023/07/10 04:53:25;;;;;;;22.10;19.80;;;20.30;99.90;;;;;;5049918;28;20405;-70
2023/07/10 04:55:52;;;;;;;23.53;21.03;;;20.30;99.90;;;;;;5046193;28;20521;-69
2023/07/10 04:58:18;;;;;;;23.70;21.20;;;20.20;99.90;;;;;;5049158;28;20416;-70
2023/07/10 05:00:54;;;;;;;23.10;20.70;;;20.20;99.90;;;;;;5053404;28;20467;-69
2023/07/10 05:03:20;;;;;;;24.53;22.03;;;20.20;99.90;;;;;;5048630;28;20408;-69
2023/07/10 05:05:57;;;;;;;21.97;19.67;;;20.20;99.90;;;;;;5048828;28;20435;-69
2023/07/10 05:08:25;;;;;;;22.90;20.20;;;20.20;99.90;;;;;;5049356;28;20446;-70
2023/07/10 05:10:54;;;;;;;22.70;20.40;;;20.20;99.90;;;;;;5050852;28;20916;-69
2023/07/10 05:13:21;;;;;;;23.30;20.87;;;20.20;99.90;;;;;;5048456;28;20791;-69
2023/07/10 05:15:47;;;;;;;21.57;19.37;;;20.20;99.90;;;;;;5048685;28;20478;-69
2023/07/10 05:18:13;;;;;;;20.83;18.83;;;20.20;99.90;;;;;;5048964;28;20408;-69
2023/07/10 05:20:42;;;;;;;23.97;21.57;;;20.20;99.90;;;;;;5049079;28;20682;-70
2023/07/10 05:23:08;;;;;;;23.53;20.63;;;20.20;99.90;;;;;;5048419;28;20420;-69
2023/07/10 05:25:34;;;;;;;24.13;21.27;;;20.20;99.90;;;;;;5048276;28;20421;-69
2023/07/10 05:28:01;;;;;;;23.90;21.60;;;20.10;99.90;;;;;;5048864;28;20235;-69
2023/07/10 05:30:27;;;;;;;22.93;20.83;;;20.00;99.90;;;;;;5048660;28;20185;-69
2023/07/10 05:32:53;;;;;;;21.77;19.57;;;20.00;99.90;;;;;;5047231;28;20416;-69
2023/07/10 05:35:19;;;;;;;21.83;19.73;;;20.00;99.90;;;;;;5047249;28;20956;-69
2023/07/10 05:37:45;;;;;;;19.73;17.80;;;20.00;99.90;;;;;;5044239;28;20505;-70
2023/07/10 05:40:11;;;;;;;23.07;20.90;;;20.00;99.90;;;;;;5048410;28;20531;-69
2023/07/10 05:42:38;;;;;;;23.57;21.03;;;20.00;99.90;;;;;;5047848;28;20172;-69
2023/07/10 05:45:05;;;;;;;22.57;20.37;;;19.90;99.90;;;;;;5048249;28;20189;-69
2023/07/10 05:47:31;;;;;;;22.53;20.20;;;20.00;99.90;;;;;;5048669;28;20412;-69
2023/07/10 05:49:56;;;;;;;21.97;19.57;;;20.00;99.90;;;;;;5048687;28;20728;-69
2023/07/10 05:52:22;;;;;;;19.43;17.60;;;20.00;99.90;;;;;;5048161;28;20178;-69
2023/07/10 05:54:48;;;;;;;21.23;19.27;;;20.00;99.90;;;;;;5048209;28;20197;-69
2023/07/10 05:57:13;;;;;;;23.27;21.00;;;20.00;99.90;;;;;;5049953;28;20744;-70
2023/07/10 05:59:40;;;;;;;22.13;20.13;;;20.00;99.90;;;;;;5047280;28;20236;-69
2023/07/10 06:02:10;;;;;;;20.40;18.33;;;19.90;99.90;;;;;;5047120;28;20661;-69
2023/07/10 06:04:36;;;;;;;22.00;19.70;;;20.00;99.90;;;;;;5047632;28;20439;-69
2023/07/10 06:07:01;;;;;;;19.13;17.30;;;20.00;99.90;;;;;;5046267;28;20468;-69
2023/07/10 06:09:27;;;;;;;21.33;19.03;;;20.10;99.90;;;;;;5047674;28;20255;-69
2023/07/10 06:11:53;;;;;;;19.33;17.33;;;20.10;99.90;;;;;;5047538;28;20185;-69
2023/07/10 06:14:18;;;;;;;17.93;16.13;;;20.10;99.90;;;;;;5046299;28;20657;-69
2023/07/10 06:16:44;;;;;;;17.93;16.23;;;20.20;99.90;;;;;;5043307;28;20714;-69
2023/07/10 06:19:10;;;;;;;16.93;13.07;;;20.20;99.90;;;;;;5046283;28;20548;-69
2023/07/10 06:21:35;;;;;;;16.13;13.73;;;20.10;99.90;;;;;;5047198;28;20220;-69
2023/07/10 06:24:01;;;;;;;13.43;12.33;;;20.20;99.90;;;;;;5047820;28;20269;-69
2023/07/10 06:26:27;;;;;;;18.00;14.07;;;20.20;99.90;;;;;;5047411;28;20198;-69
2023/07/10 06:28:52;;;;;;;12.80;11.57;;;20.20;99.90;;;;;;5044413;28;20677;-69
2023/07/10 06:31:18;;;;;;;12.87;11.57;;;20.20;99.90;;;;;;5047766;28;20220;-69
2023/07/10 06:33:44;;;;;;;13.10;11.80;;;20.20;99.90;;;;;;5047108;28;20181;-70
2023/07/10 06:36:10;;;;;;;11.77;10.67;;;20.20;99.90;;;;;;5049650;28;20197;-69
2023/07/10 06:38:35;;;;;;;11.97;10.87;;;20.20;99.90;;;;;;5051177;28;20181;-70
2023/07/10 06:41:01;;;;;;;12.00;10.80;;;20.30;99.90;;;;;;5051507;28;20440;-69
2023/07/10 06:43:27;;;;;;;11.50;9.90;;;20.20;99.90;;;;;;5050862;28;20552;-70
2023/07/10 06:45:56;;;;;;;12.40;8.17;;;20.30;99.90;;;;;;5049750;28;20229;-70
2023/07/10 06:48:21;;;;;;;10.53;8.93;;;20.20;99.90;;;;;;5050178;28;20446;-69
2023/07/10 06:50:55;;;;;;;12.10;7.90;;;20.10;99.90;;;;;;5051289;28;20448;-69
2023/07/10 06:53:22;;;;;;;9.33;7.83;;;20.10;99.90;;;;;;5049416;28;20227;-70
2023/07/10 06:55:56;;;;;;;7.73;6.90;;;20.20;99.90;;;;;;5048665;28;20432;-69
2023/07/10 06:58:22;;;;;;;6.90;6.30;;;20.20;99.90;;;;;;5051813;28;20935;-69
2023/07/10 07:00:47;;;;;;;10.50;6.37;;;20.20;99.90;;;;;;5051332;28;20492;-70
2023/07/10 07:03:13;;;;;;;9.80;5.90;;;20.20;99.90;;;;;;5050934;28;20178;-70
2023/07/10 07:05:43;;;;;;;6.13;5.20;;;20.20;99.90;;;;;;5051272;28;20194;-70
2023/07/10 07:08:09;;;;;;;6.30;5.70;;;20.20;99.90;;;;;;5051481;28;20268;-70
2023/07/10 07:10:40;;;;;;;8.23;5.60;;;20.20;99.90;;;;;;5051286;28;20468;-70
2023/07/10 07:13:06;;;;;;;8.00;6.30;;;20.20;99.90;;;;;;5049652;28;20507;-70
2023/07/10 07:15:32;;;;;;;7.40;6.70;;;20.10;99.90;;;;;;5051146;28;20515;-70
2023/07/10 07:17:57;;;;;;;11.40;8.20;;;20.20;99.90;;;;;;5083907;28;20189;-70
2023/07/10 07:20:23;;;;;;;9.00;8.20;;;20.30;99.90;;;;;;5051396;28;20248;-70
2023/07/10 07:22:49;;;;;;;9.83;8.87;;;20.30;99.90;;;;;;5050905;28;20189;-70
2023/07/10 07:25:14;;;;;;;11.40;10.20;;;20.40;99.90;;;;;;5051113;28;20181;-70
2023/07/10 07:27:40;;;;;;;10.53;9.63;;;20.40;99.90;;;;;;5051399;28;20174;-70
2023/07/10 07:30:06;;;;;;;12.93;10.83;;;20.60;99.90;;;;;;5051709;28;20184;-70
2023/07/10 07:32:32;;;;;;;19.27;10.40;;;20.80;99.90;;;;;;5050823;28;20178;-70
2023/07/10 07:34:58;;;;;;;11.27;10.10;;;21.00;99.90;;;;;;5051236;28;20477;-70
2023/07/10 07:37:23;;;;;;;10.63;9.53;;;21.20;99.90;;;;;;5051196;28;20650;-70
2023/07/10 07:39:49;;;;;;;15.10;8.97;;;21.40;99.90;;;;;;5050753;28;20196;-70
2023/07/10 07:42:15;;;;;;;9.10;8.20;;;21.50;99.90;;;;;;5050587;28;20178;-70
2023/07/10 07:44:41;;;;;;;11.17;9.07;;;21.60;99.90;;;;;;5050222;28;20186;-70
2023/07/10 07:47:07;;;;;;;13.47;9.70;;;21.70;99.90;;;;;;5048634;28;20225;-70
2023/07/10 07:49:33;;;;;;;10.67;9.57;;;21.70;99.90;;;;;;5050966;28;20482;-70
2023/07/10 07:51:59;;;;;;;11.93;10.60;;;21.70;99.90;;;;;;5049824;28;20420;-70
2023/07/10 07:54:24;;;;;;;11.90;9.90;;;21.70;99.90;;;;;;5049524;28;20265;-70
2023/07/10 07:56:50;;;;;;;8.63;7.73;;;21.70;99.90;;;;;;5049545;28;20215;-70
2023/07/10 07:59:18;;;;;;;9.10;8.20;;;21.80;99.90;;;;;;5050601;28;20618;-70
2023/07/10 08:01:45;;;;;;;8.27;7.33;;;21.90;99.90;;;;;;5050523;28;20262;-70
2023/07/10 08:04:11;;;;;;;10.10;9.17;;;21.90;99.90;;;;;;5050142;28;20909;-70
2023/07/10 08:06:37;;;;;;;10.70;9.50;;;21.90;99.90;;;;;;5050127;28;20438;-70
2023/07/10 08:09:03;;;;;;;8.37;7.57;;;21.80;99.90;;;;;;5050342;28;20197;-70
2023/07/10 08:11:28;;;;;;;12.70;8.20;;;21.80;99.90;;;;;;5049414;28;20182;-70
2023/07/10 08:13:54;;;;;;;8.07;7.27;;;21.90;99.90;;;;;;5049860;28;20482;-70
2023/07/10 08:16:21;;;;;;;9.13;8.20;;;21.90;99.90;;;;;;5049909;28;20190;-70
2023/07/10 08:18:48;;;;;;;8.80;7.90;;;21.80;99.90;;;;;;5048993;28;20909;-69
2023/07/10 08:21:15;;;;;;;12.40;9.80;;;21.80;99.90;;;;;;5050315;28;20455;-69
2023/07/10 08:23:40;;;;;;;12.77;9.07;;;21.80;99.90;;;;;;5049792;28;20533;-69
2023/07/10 08:26:07;;;;;;;11.00;9.70;;;21.80;99.90;;;;;;5049706;28;20620;-69
2023/07/10 08:28:33;;;;;;;11.10;10.00;;;21.90;99.90;;;;;;5049885;28;20201;-69
2023/07/10 08:30:59;;;;;;;11.63;10.40;;;21.90;99.90;;;;;;5050332;28;20417;-69
2023/07/10 08:33:24;;;;;;;13.03;11.53;;;21.90;99.90;;;;;;5049398;28;20412;-69
2023/07/10 08:36:02;;;;;;;12.30;11.10;;;22.00;99.90;;;;;;5049661;28;20436;-69
2023/07/10 08:38:28;;;;;;;18.40;11.90;;;22.10;99.90;;;;;;5050261;28;20238;-69
2023/07/10 08:41:00;;;;;;;16.33;11.37;;;22.10;99.90;;;;;;5050303;28;20463;-69
2023/07/10 08:43:26;;;;;;;13.37;11.17;;;22.20;99.90;;;;;;5049548;28;20416;-69
2023/07/10 08:45:56;;;;;;;13.07;11.87;;;22.30;99.90;;;;;;5049752;28;20428;-69
2023/07/10 08:48:35;;;;;;;12.70;10.77;;;22.40;99.90;;;;;;5050072;28;20174;-69
2023/07/10 08:51:19;;;;;;;11.00;9.90;;;22.40;99.90;;;;;;5050151;28;20443;-69
2023/07/10 08:54:08;;;;;;;9.10;6.53;;;22.50;99.90;;;;;;5049377;28;20424;-69
2023/07/10 08:56:42;;;;;;;7.50;5.10;;;22.60;99.90;;;;;;5048667;28;20814;-69
2023/07/10 08:59:35;;;;;;;5.20;4.70;;;22.60;99.90;;;;;;5048827;28;20420;-70
2023/07/10 09:02:01;;;;;;;5.60;4.33;;;22.60;99.90;;;;;;5049282;28;20456;-70
2023/07/10 09:04:29;;;;;;;6.20;4.50;;;22.80;99.90;;;;;;5049411;28;20469;-69
2023/07/10 09:07:00;;;;;;;4.97;4.47;;;22.80;99.90;;;;;;5049532;28;20197;-69
2023/07/10 09:09:43;;;;;;;4.60;3.83;;;22.90;99.90;;;;;;5049480;28;20471;-69
2023/07/10 09:12:25;;;;;;;4.23;3.40;;;23.00;99.90;;;;;;5049083;28;20510;-69
2023/07/10 09:14:54;;;;;;;3.97;3.40;;;23.10;99.90;;;;;;5049137;28;20780;-69
2023/07/10 09:17:32;;;;;;;3.80;3.30;;;23.20;99.90;;;;;;5049627;28;20494;-70
2023/07/10 09:20:03;;;;;;;4.90;3.30;;;23.20;99.90;;;;;;5049484;28;20411;-70
2023/07/10 09:22:30;;;;;;;5.07;3.67;;;23.30;99.90;;;;;;5048514;28;20429;-70
2023/07/10 09:24:56;;;;;;;6.13;4.17;;;23.40;99.90;;;;;;5048860;28;20578;-69
2023/07/10 09:27:23;;;;;;;4.00;3.40;;;23.50;99.90;;;;;;5048765;28;20812;-70
2023/07/10 09:29:52;;;;;;;5.57;3.73;;;23.60;99.90;;;;;;5048873;28;20272;-70
2023/07/10 09:32:19;;;;;;;5.63;4.30;;;23.70;99.90;;;;;;5048436;28;20415;-70
2023/07/10 09:34:58;;;;;;;8.00;4.17;;;23.70;99.90;;;;;;5048616;28;20470;-70
2023/07/10 09:37:33;;;;;;;4.07;3.57;;;23.90;99.90;;;;;;5048942;28;20791;-70
2023/07/10 09:40:18;;;;;;;6.60;3.40;;;24.00;99.90;;;;;;5048792;28;20795;-70
2023/07/10 09:42:43;;;;;;;5.07;4.20;;;24.20;99.90;;;;;;5048583;28;21268;-70
2023/07/10 09:45:09;;;;;;;5.53;3.77;;;24.30;99.90;;;;;;5048229;28;20412;-70
2023/07/10 09:47:43;;;;;;;4.80;3.67;;;24.20;99.90;;;;;;5048949;28;20186;-70
2023/07/10 09:50:17;;;;;;;3.90;3.20;;;24.30;99.90;;;;;;5048909;28;20198;-70
2023/07/10 09:52:55;;;;;;;4.13;3.07;;;24.40;99.90;;;;;;5048629;28;20459;-70
2023/07/10 09:55:22;;;;;;;7.03;3.47;;;24.50;99.90;;;;;;5047665;28;21027;-70
2023/07/10 09:57:47;;;;;;;5.53;3.60;;;24.60;99.90;;;;;;5048898;28;20485;-70
2023/07/10 10:00:17;;;;;;;3.80;3.37;;;24.40;99.90;;;;;;5048514;28;20456;-69
2023/07/10 10:02:56;;;;;;;5.43;4.10;;;24.40;99.90;;;;;;5048272;28;20253;-69
2023/07/10 10:05:23;;;;;;;4.67;4.17;;;24.50;99.90;;;;;;5048091;28;20431;-70
2023/07/10 10:07:51;;;;;;;5.77;3.87;;;24.70;99.90;;;;;;5048450;28;20513;-69
2023/07/10 10:10:31;;;;;;;6.80;4.23;;;24.80;99.90;;;;;;5048027;28;20553;-69
2023/07/10 10:13:24;;;;;;;6.30;5.57;;;25.00;99.90;;;;;;5046738;28;20420;-69
2023/07/10 10:16:03;;;;;;;6.33;3.53;;;25.00;99.90;;;;;;5048189;28;20808;-70
2023/07/10 10:18:47;;;;;;;4.00;3.23;;;25.00;99.90;;;;;;5048317;28;20904;-69
2023/07/10 10:21:17;;;;;;;4.40;3.40;;;25.20;99.90;;;;;;5045555;28;20463;-69
2023/07/10 10:23:47;;;;;;;4.73;3.10;;;25.20;99.90;;;;;;5047481;28;20831;-70
2023/07/10 10:26:37;;;;;;;4.17;2.87;;;25.20;99.90;;;;;;5047273;28;20438;-69
2023/07/10 10:29:21;;;;;;;3.63;3.10;;;25.30;99.90;;;;;;5046216;28;20416;-70
2023/07/10 10:32:07;;;;;;;4.07;2.67;;;25.40;99.90;;;;;;5047277;28;20507;-69
2023/07/10 10:34:41;;;;;;;3.10;2.80;;;25.40;99.90;;;;;;4992549;28;20432;-70
2023/07/10 10:37:24;;;;;;;4.00;3.00;;;25.50;99.90;;;;;;5028099;28;20510;-70
2023/07/10 10:40:22;;;;;;;5.07;2.37;;;25.60;99.90;;;;;;5026914;28;20571;-70
2023/07/10 10:42:56;;;;;;;3.63;2.27;;;25.60;99.90;;;;;;5041154;28;20436;-70
2023/07/10 10:45:27;;;;;;;5.87;2.80;;;25.70;99.90;;;;;;5046522;28;20447;-69
2023/07/10 10:48:22;;;;;;;3.37;2.50;;;25.70;99.90;;;;;;5047725;28;20424;-70
2023/07/10 10:51:00;;;;;;;4.73;2.33;;;25.80;99.90;;;;;;5047486;28;20507;-70
2023/07/10 10:53:51;;;;;;;3.57;2.40;;;25.90;99.90;;;;;;5047513;28;20443;-70
2023/07/10 10:56:47;;;;;;;3.57;2.37;;;25.90;99.90;;;;;;5044777;28;20505;-70
2023/07/10 10:59:25;;;;;;;2.60;2.10;;;25.90;99.90;;;;;;5046708;28;20420;-70
2023/07/10 11:02:02;;;;;;;3.77;2.03;;;26.00;99.90;;;;;;5047665;28;20455;-70
2023/07/10 11:04:36;;;;;;;2.90;2.60;;;26.10;99.90;;;;;;5047698;28;20415;-69
2023/07/10 11:07:07;;;;;;;2.80;1.90;;;26.00;98.00;;;;;;5047799;28;20440;-70
2023/07/10 11:09:39;;;;;;;4.00;2.00;;;26.00;99.40;;;;;;5040595;28;20404;-70
2023/07/10 11:12:13;;;;;;;3.60;2.33;;;26.10;99.90;;;;;;5047074;28;20420;-70
2023/07/10 11:14:39;;;;;;;2.97;2.20;;;26.20;99.90;;;;;;5047613;28;20458;-70
2023/07/10 11:17:08;;;;;;;3.77;2.20;;;26.30;98.70;;;;;;5045077;28;21185;-69
2023/07/10 11:19:34;;;;;;;3.77;2.33;;;26.30;98.60;;;;;;5047947;28;20186;-69
2023/07/10 11:22:11;;;;;;;3.67;1.80;;;26.30;99.30;;;;;;5048165;28;20804;-70
2023/07/10 11:24:37;;;;;;;3.43;2.60;;;26.40;98.90;;;;;;5050678;28;20189;-70
2023/07/10 11:27:16;;;;;;;5.47;2.60;;;26.30;96.70;;;;;;5050531;28;20440;-70
2023/07/10 11:29:45;;;;;;;5.00;2.70;;;26.40;97.40;;;;;;5043685;28;20412;-70
2023/07/10 11:32:18;;;;;;;3.77;2.70;;;26.30;97.00;;;;;;5046999;28;20469;-70
2023/07/10 11:35:12;;;;;;;3.70;2.47;;;26.00;97.20;;;;;;5050542;28;20408;-70
2023/07/10 11:37:49;;;;;;;3.37;2.17;;;26.00;98.70;;;;;;5050835;28;20446;-70
2023/07/10 11:40:26;;;;;;;4.43;2.30;;;26.20;97.90;;;;;;5049205;28;20963;-70
2023/07/10 11:42:53;;;;;;;3.57;1.90;;;26.20;97.50;;;;;;5050260;28;20443;-70
2023/07/10 11:45:26;;;;;;;4.40;3.30;;;26.20;96.50;;;;;;5050350;28;20949;-69
2023/07/10 11:47:52;;;;;;;7.73;2.77;;;25.90;95.50;;;;;;5050644;28;20855;-70
2023/07/10 11:50:27;;;;;;;4.53;2.23;;;25.80;98.10;;;;;;5049096;28;20442;-69
2023/07/10 11:53:28;;;;;;;4.47;2.43;;;25.70;97.40;;;;;;5045925;28;20411;-69
2023/07/10 11:56:02;;;;;;;3.63;1.90;;;25.50;96.40;;;;;;4967857;28;20450;-69
2023/07/10 11:58:30;;;;;;;2.33;2.13;;;25.30;97.50;;;;;;5034665;28;20416;-69
2023/07/10 12:01:04;;;;;;;3.70;2.60;;;25.40;99.20;;;;;;5050367;28;20538;-69
2023/07/10 12:03:34;;;;;;;3.63;2.17;;;25.60;98.50;;;;;;5049881;28;20416;-69
2023/07/10 12:05:59;;;;;;;2.97;2.27;;;25.80;98.40;;;;;;5050039;28;20428;-69
2023/07/10 12:08:29;;;;;;;3.53;1.90;;;25.90;97.20;;;;;;5045548;28;20830;-69
2023/07/10 12:10:55;;;;;;;3.87;2.50;;;26.10;99.10;;;;;;5050366;28;20182;-69
2023/07/10 12:13:30;;;;;;;3.40;2.50;;;26.20;97.30;;;;;;5049541;28;20415;-70
2023/07/10 12:15:58;;;;;;;2.27;1.70;;;26.30;96.50;;;;;;5049770;28;20467;-70
2023/07/10 12:18:30;;;;;;;2.80;1.83;;;26.40;95.20;;;;;;5049796;28;20503;-69
2023/07/10 12:21:00;;;;;;;4.83;2.03;;;26.50;95.80;;;;;;5050150;28;20468;-69
2023/07/10 12:23:26;;;;;;;3.87;1.87;;;26.70;96.10;;;;;;5049509;28;20404;-69
2023/07/10 12:25:55;;;;;;;2.80;2.10;;;26.70;94.70;;;;;;5049695;28;20428;-69
2023/07/10 12:28:23;;;;;;;3.40;2.43;;;26.80;94.40;;;;;;5049604;28;20424;-69
2023/07/10 12:30:51;;;;;;;3.43;2.30;;;26.60;94.20;;;;;;5049901;28;20820;-69
2023/07/10 12:33:28;;;;;;;3.73;2.43;;;26.40;94.40;;;;;;5047585;28;20424;-70
2023/07/10 12:35:55;;;;;;;3.50;2.53;;;26.20;95.10;;;;;;5049456;28;20435;-69
2023/07/10 12:38:21;;;;;;;2.93;1.80;;;26.10;95.90;;;;;;5049501;28;20991;-69
2023/07/10 12:40:46;;;;;;;4.63;1.70;;;25.90;96.20;;;;;;5049713;28;20521;-69
2023/07/10 12:43:24;;;;;;;2.87;1.93;;;25.90;96.80;;;;;;5047618;28;20833;-70
2023/07/10 12:46:13;;;;;;;3.27;1.73;;;25.90;95.80;;;;;;5049328;28;20213;-70
2023/07/10 12:48:40;;;;;;;2.93;1.90;;;25.90;96.10;;;;;;5041635;28;20412;-70